ADDS METAR Data INFO
IDs: Format: Raw Decoded Include TAF

Data at: 0641 UTC 23 Feb 2018

KRRT 230635Z AUTO 00000KT 10SM CLR M12/M14 A3022 RMK AO2
KRRT 230615Z AUTO 00000KT 10SM CLR M12/M15 A3022 RMK AO2
KRRT 230555Z AUTO 20003KT 10SM CLR M11/M15 A3023 RMK AO2
KRRT 230535Z AUTO 00000KT 10SM CLR M11/M14 A3024 RMK AO2
KRRT 230515Z AUTO 18003KT 10SM CLR M12/M15 A3024 RMK AO2
KRRT 230455Z AUTO 00000KT 10SM CLR M12/M14 A3024 RMK AO2
KRRT 230435Z AUTO 18003KT 10SM CLR M14/M16 A3025 RMK AO2
KRRT 230415Z AUTO 16003KT 10SM CLR M14/M17 A3026 RMK AO2
KRRT 230355Z AUTO 16003KT 10SM CLR M14/M17 A3026 RMK AO2
KRRT 230335Z AUTO 00000KT 10SM CLR M13/M16 A3027 RMK AO2
KRRT 230315Z AUTO 00000KT 10SM CLR M13/M16 A3027 RMK AO2
KRRT 230255Z AUTO 00000KT 10SM CLR M13/M16 A3027 RMK AO2
KRRT 230235Z AUTO 00000KT 10SM CLR M13/M16 A3027 RMK AO2
KRRT 230215Z AUTO 00000KT 10SM CLR M12/M15 A3027 RMK AO2
KRRT 230155Z AUTO 00000KT 10SM CLR M11/M14 A3028 RMK AO2
KRRT 230135Z AUTO 00000KT 10SM CLR M12/M15 A3030 RMK AO2
KRRT 230115Z AUTO 20003KT 10SM CLR M09/M13 A3030 RMK AO2
KRRT 230055Z AUTO 00000KT 10SM CLR M09/M13 A3031 RMK AO2
KRRT 230035Z AUTO 20004KT 10SM CLR M09/M13 A3032 RMK AO2
KRRT 230017Z AUTO 18003KT 10SM CLR M08/M13 A3032 RMK AO2
KRRT 222355Z AUTO 20004KT 10SM CLR M08/M12 A3032 RMK AO2
KRRT 222335Z AUTO 20003KT 10SM CLR M07/M12 A3032 RMK AO2
KRRT 222315Z AUTO 21005KT 10SM CLR M06/M12 A3032 RMK AO2
KRRT 222255Z AUTO 19003KT 10SM CLR M06/M11 A3033 RMK AO2
KRRT 222235Z AUTO 19004KT 10SM CLR M05/M11 A3034 RMK AO2
KRRT 222215Z AUTO 22010KT 10SM CLR M05/M11 A3034 RMK AO2
KRRT 222155Z AUTO 22011G14KT 10SM CLR M05/M11 A3035 RMK AO2
KRRT 222135Z AUTO 21007KT 10SM CLR M05/M11 A3034 RMK AO2
KRRT 222115Z AUTO 22010G16KT 10SM CLR M06/M12 A3035 RMK AO2
KRRT 222055Z AUTO 22011G16KT 10SM CLR M06/M12 A3035 RMK AO2
KRRT 222035Z AUTO 22010G16KT 10SM CLR M06/M12 A3036 RMK AO2
KRRT 222015Z AUTO 21008G14KT 10SM CLR M06/M12 A3037 RMK AO2
KRRT 221955Z AUTO 21012KT 10SM CLR M06/M12 A3037 RMK AO2
KRRT 221935Z AUTO 22013G18KT 10SM CLR M06/M12 A3038 RMK AO2
KRRT 221915Z AUTO 21014G18KT 10SM CLR M06/M13 A3039 RMK AO2
KRRT 221855Z AUTO 22012G17KT 10SM CLR M06/M13 A3040 RMK AO2
KRRT 221835Z AUTO 21008KT 10SM CLR M07/M13 A3041 RMK AO2
KRRT 221815Z AUTO 21010KT 10SM CLR M07/M14 A3041 RMK AO2
KRRT 221755Z AUTO 22008KT 10SM CLR M07/M14 A3043 RMK AO2
KRRT 221735Z AUTO 22011G16KT 10SM CLR M08/M15 A3043 RMK AO2
KRRT 221715Z AUTO 21005KT 10SM CLR M08/M16 A3044 RMK AO2
KRRT 221655Z AUTO 00000KT 10SM CLR M10/M17 A3044 RMK AO2
KRRT 221635Z AUTO 17003KT 10SM CLR M11/M17 A3044 RMK AO2
KRRT 221615Z AUTO 17005KT 10SM CLR M12/M17 A3044 RMK AO2
KRRT 221555Z AUTO 17007KT 10SM CLR M13/M18 A3043 RMK AO2
KRRT 221535Z AUTO 17006KT 10SM CLR M14/M18 A3043 RMK AO2
KRRT 221515Z AUTO 17006KT 10SM CLR M15/M19 A3043 RMK AO2
KRRT 221455Z AUTO 17006KT 10SM CLR M17/M20 A3044 RMK AO2
KRRT 221435Z AUTO 17007KT 10SM CLR M18/M20 A3044 RMK AO2
KRRT 221415Z AUTO 16006KT 10SM CLR M19/M22 A3045 RMK AO2
KRRT 221355Z AUTO 16003KT 10SM CLR M19/M22 A3046 RMK AO2
KRRT 221335Z AUTO 17003KT 10SM CLR M20/M22 A3046 RMK AO2
KRRT 221315Z AUTO 16004KT 10SM CLR M22/M24 A3046 RMK AO2
KRRT 221256Z AUTO 17004KT 10SM CLR M23/M26 A3046 RMK AO2
KRRT 221235Z AUTO 00000KT 10SM CLR M23/M25 A3046 RMK AO2
KRRT 221215Z AUTO 00000KT 10SM CLR M22/M24 A3046 RMK AO2
KRRT 221155Z AUTO 15003KT 10SM CLR M20/M22 A3046 RMK AO2
KRRT 221135Z AUTO 17003KT 10SM CLR M20/M22 A3046 RMK AO2
KRRT 221115Z AUTO 00000KT 10SM CLR M21/M23 A3047 RMK AO2
KRRT 221055Z AUTO 17004KT 10SM CLR M21/M23 A3047 RMK AO2
KRRT 221035Z AUTO 18003KT 10SM CLR M21/M23 A3047 RMK AO2
KRRT 221015Z AUTO 16003KT 10SM CLR M21/M23 A3047 RMK AO2
KRRT 220955Z AUTO 16003KT 10SM CLR M21/M24 A3048 RMK AO2
KRRT 220935Z AUTO 18003KT 10SM CLR M21/M22 A3048 RMK AO2
KRRT 220915Z AUTO 00000KT 10SM CLR M20/M22 A3050 RMK AO2
KRRT 220855Z AUTO 00000KT 10SM CLR M19/M21 A3050 RMK AO2
KRRT 220835Z AUTO 21004KT 10SM CLR M19/M21 A3051 RMK AO2
KRRT 220815Z AUTO 20005KT 10SM CLR M19/M22 A3051 RMK AO2
KRRT 220755Z AUTO 20005KT 10SM CLR M19/M22 A3051 RMK AO2
KRRT 220735Z AUTO 20005KT 10SM CLR M19/M22 A3051 RMK AO2
KRRT 220715Z AUTO 20004KT 10SM CLR M19/M21 A3051 RMK AO2
KRRT 220655Z AUTO 21003KT 10SM CLR M19/M21 A3051 RMK AO2
KRRT 220635Z AUTO 20006KT 10SM CLR M19/M21 A3051 RMK AO2
KRRT 220615Z AUTO 20003KT 10SM CLR M19/M21 A3051 RMK AO2
KRRT 220555Z AUTO 19004KT 10SM CLR M19/M21 A3051 RMK AO2
KRRT 220535Z AUTO 21006KT 10SM CLR M18/M21 A3051 RMK AO2
KRRT 220515Z AUTO 21006KT 10SM CLR M18/M21 A3051 RMK AO2
KRRT 220455Z AUTO 22006KT 10SM CLR M18/M21 A3050 RMK AO2
KRRT 220435Z AUTO 21007KT 10SM CLR M17/M20 A3050 RMK AO2
KRRT 220415Z AUTO 22005KT 10SM CLR M17/M20 A3050 RMK AO2
KRRT 220355Z AUTO 22007KT 10SM CLR M17/M20 A3050 RMK AO2
KRRT 220035Z AUTO 22004KT 10SM CLR M16/M20 A3049 RMK AO2
KRRT 220015Z AUTO 22006KT 10SM CLR M15/M19 A3048 RMK AO2
KRRT 212355Z AUTO 21006KT 10SM CLR M15/M19 A3048 RMK AO2
KRRT 212335Z AUTO 22008KT 10SM CLR M14/M19 A3048 RMK AO2
KRRT 212315Z AUTO 22008KT 10SM CLR M13/M19 A3048 RMK AO2
KRRT 212255Z AUTO 23011G14KT 10SM CLR M13/M18 A3048 RMK AO2
KRRT 212235Z AUTO 23007KT 10SM CLR M12/M18 A3048 RMK AO2
KRRT 212215Z AUTO 22010KT 10SM CLR M12/M18 A3047 RMK AO2
KRRT 212155Z AUTO 22009G14KT 10SM CLR M12/M18 A3046 RMK AO2
KRRT 212135Z AUTO 23010KT 10SM CLR M12/M18 A3045 RMK AO2
KRRT 212115Z AUTO 23008KT 10SM CLR M12/M18 A3045 RMK AO2
KRRT 212055Z AUTO 23011KT 10SM CLR M12/M18 A3045 RMK AO2
KRRT 212035Z AUTO 23009KT 10SM CLR M12/M18 A3045 RMK AO2
KRRT 212015Z AUTO 22010KT 10SM CLR M12/M18 A3045 RMK AO2
KRRT 211955Z AUTO 25010KT 10SM CLR M12/M18 A3044 RMK AO2
KRRT 211935Z AUTO 21010KT 10SM CLR M12/M18 A3045 RMK AO2
KRRT 211915Z AUTO 20009G14KT 10SM CLR M13/M18 A3044 RMK AO2
KRRT 211855Z AUTO 21010KT 10SM CLR M12/M18 A3042 RMK AO2